Time;durP1;ratioP1;P1;durP2;ratioP2;P2;SDS_P1;SDS_P2;PMS_P1;PMS_P2;Temp;Humidity;BMP_temperature;BMP_pressure;BME280_temperature;BME280_humidity;BME280_pressure;Samples;Min_cycle;Max_cycle;Signal;HPM_P1;HPM_P2
2023/07/13 00:00:25;;;;;;;;;;;;;;;14.95;79.04;101422.81;5051350;28;20104;-44
2023/07/13 00:02:53;;;;;;;;;;;;;;;14.93;78.94;101418.44;5057576;27;20464;-45
2023/07/13 00:05:18;;;;;;;;;;;;;;;14.92;78.28;101427.91;5056676;28;20374;-44
2023/07/13 00:07:46;;;;;;;;;;;;;;;14.91;79.14;101433.06;5055365;28;19924;-44
2023/07/13 00:10:11;;;;;;;;;;;;;;;14.89;79.94;101438.22;5053287;28;19928;-54
2023/07/13 00:12:37;;;;;;;;;;;;;;;14.86;80.18;101438.16;5051797;27;20365;-55
2023/07/13 00:15:08;;;;;;;;;;;;;;;14.84;79.62;101438.97;5051741;28;20351;-55
2023/07/13 00:17:33;;;;;;;;;;;;;;;14.82;79.93;101440.66;5057112;28;20523;-55
2023/07/13 00:19:58;;;;;;;;;;;;;;;14.77;78.51;101430.22;5055743;28;20011;-54
2023/07/13 00:22:25;;;;;;;;;;;;;;;14.75;77.96;101421.56;5050925;28;20305;-54
2023/07/13 00:28:09;;;;;;;;;;;;;;;14.66;82.12;101422.22;5055326;28;20359;-55
2023/07/13 00:30:34;;;;;;;;;;;;;;;14.61;82.08;101428.16;5055943;28;20023;-44
2023/07/13 00:33:01;;;;;;;;;;;;;;;14.55;83.18;101423.72;5057523;28;20028;-46
2023/07/13 00:35:26;;;;;;;;;;;;;;;14.53;81.45;101430.59;5064056;28;19924;-47
2023/07/13 00:37:51;;;;;;;;;;;;;;;14.49;80.69;101428.75;5060005;28;19921;-54
2023/07/13 00:40:18;;;;;;;;;;;;;;;14.48;82.12;101435.66;5060143;28;19924;-54
2023/07/13 01:01:14;;;;;;;;;;;;;;;14.27;84.78;101436.91;5120083;27;20992;-55
2023/07/13 01:03:40;;;;;;;;;;;;;;;14.23;83.94;101436.81;5120529;27;19931;-53
2023/07/13 01:06:06;;;;;;;;;;;;;;;14.22;82.80;101434.19;5126111;27;19915;-53
2023/07/13 01:08:31;;;;;;;;;;;;;;;14.20;83.91;101441.94;5127738;27;20430;-54
2023/07/13 01:10:58;;;;;;;;;;;;;;;14.19;86.69;101439.28;5125153;27;20065;-54
2023/07/13 01:13:23;;;;;;;;;;;;;;;14.17;84.80;101430.63;5125371;27;20022;-55
2023/07/13 01:15:50;;;;;;;;;;;;;;;14.14;84.93;101440.91;5124886;27;20015;-54
2023/07/13 01:18:18;;;;;;;;;;;;;;;14.13;87.88;101429.66;5132293;27;19915;-54
2023/07/13 01:21:03;;;;;;;;;;;;;;;14.10;87.12;101434.78;5130285;27;20362;-54
2023/07/13 01:23:28;;;;;;;;;;;;;;;14.10;86.43;101442.56;5127794;27;19934;-55
2023/07/13 01:25:55;;;;;;;;;;;;;;;14.09;86.92;101448.56;5119857;27;19920;-54
2023/07/13 01:28:20;;;;;;;;;;;;;;;14.09;84.05;101450.28;5122082;27;19981;-55
2023/07/13 01:30:46;;;;;;;;;;;;;;;14.07;85.18;101450.22;5119928;27;20323;-55
2023/07/13 01:33:16;;;;;;;;;;;;;;;14.07;87.14;101454.53;5120901;27;20328;-54
2023/07/13 01:35:41;;;;;;;;;;;;;;;14.04;88.09;101447.59;5125023;27;19927;-55
2023/07/13 01:38:08;;;;;;;;;;;;;;;14.02;85.84;101456.16;5122352;27;19919;-55
2023/07/13 01:40:34;;;;;;;;;;;;;;;13.99;88.93;101453.47;5121727;27;19972;-55
2023/07/13 01:43:00;;;;;;;;;;;;;;;13.97;87.32;101453.44;5118810;27;19926;-56
2023/07/13 01:45:25;;;;;;;;;;;;;;;13.96;85.07;101443.97;5120953;27;20381;-55
2023/07/13 01:47:50;;;;;;;;;;;;;;;13.96;90.06;101451.72;5122562;27;19923;-54
2023/07/13 01:50:15;;;;;;;;;;;;;;;13.93;89.11;101457.66;5123429;27;20425;-55
2023/07/13 01:52:41;;;;;;;;;;;;;;;13.91;90.52;101454.19;5120938;27;19924;-54
2023/07/13 01:55:06;;;;;;;;;;;;;;;13.87;91.38;101457.53;5124337;27;20483;-55
2023/07/13 01:57:32;;;;;;;;;;;;;;;13.86;87.98;101448.03;5123902;27;19920;-55
2023/07/13 01:59:57;;;;;;;;;;;;;;;13.85;88.95;101459.19;5087804;27;20343;-54
2023/07/13 02:02:22;;;;;;;;;;;;;;;13.85;90.54;101453.16;5056213;28;19924;-53
2023/07/13 02:04:48;;;;;;;;;;;;;;;13.84;89.96;101447.13;5063749;27;19917;-54
2023/07/13 02:07:14;;;;;;;;;;;;;;;13.82;92.77;101456.53;5061305;28;19921;-54
2023/07/13 02:09:40;;;;;;;;;;;;;;;13.79;92.43;101459.06;5064699;28;19923;-54
2023/07/13 02:12:06;;;;;;;;;;;;;;;13.79;88.04;101453.88;5061355;27;19920;-55
2023/07/13 02:14:31;;;;;;;;;;;;;;;13.74;93.31;101460.66;5052128;27;20728;-54
2023/07/13 02:16:56;;;;;;;;;;;;;;;13.72;93.41;101452.00;5055642;28;19928;-55
2023/07/13 02:19:21;;;;;;;;;;;;;;;13.71;93.51;101462.28;5056349;27;20428;-54
2023/07/13 02:21:47;;;;;;;;;;;;;;;13.74;89.75;101460.66;5055802;27;19993;-55
2023/07/13 02:24:17;;;;;;;;;;;;;;;13.69;94.95;101457.06;5060243;28;19920;-53
2023/07/13 02:26:42;;;;;;;;;;;;;;;13.67;93.58;101458.75;5041229;28;19921;-55
2023/07/13 02:29:08;;;;;;;;;;;;;;;13.66;91.28;101467.34;5054139;28;20411;-54
2023/07/13 02:31:33;;;;;;;;;;;;;;;13.62;90.06;101466.38;5052590;28;20169;-53
2023/07/13 02:33:58;;;;;;;;;;;;;;;13.61;92.03;101463.78;5041062;28;19925;-54
2023/07/13 02:36:23;;;;;;;;;;;;;;;13.60;92.58;101455.16;5059659;28;19932;-44
2023/07/13 02:38:50;;;;;;;;;;;;;;;13.58;92.80;101454.22;5056035;28;19925;-44
2023/07/13 02:41:15;;;;;;;;;;;;;;;13.58;91.68;101458.50;5058879;28;19924;-44
2023/07/13 02:43:40;;;;;;;;;;;;;;;13.58;93.81;101454.22;5054267;28;19936;-45
2023/07/13 02:46:08;;;;;;;;;;;;;;;13.58;95.76;101461.09;5060477;28;19917;-55
2023/07/13 02:48:34;;;;;;;;;;;;;;;13.59;95.92;101462.84;5057037;28;20343;-54
2023/07/13 02:50:59;;;;;;;;;;;;;;;13.55;94.50;101458.44;5060078;28;19921;-55
2023/07/13 02:53:24;;;;;;;;;;;;;;;13.55;95.15;101463.63;5056894;28;19924;-56
2023/07/13 02:55:50;;;;;;;;;;;;;;;13.53;95.06;101462.69;5061844;28;19925;-56
2023/07/13 02:58:16;;;;;;;;;;;;;;;13.57;94.54;101461.94;5040968;28;19949;-56
2023/07/13 03:00:43;;;;;;;;;;;;;;;13.53;91.89;101458.41;5053701;28;19921;-54
2023/07/13 03:03:08;;;;;;;;;;;;;;;13.52;93.63;101468.69;5056917;28;20370;-54
2023/07/13 03:05:33;;;;;;;;;;;;;;;13.51;96.46;101454.03;5059851;28;19921;-54
2023/07/13 03:07:59;;;;;;;;;;;;;;;13.51;94.81;101462.66;5057164;28;19920;-54
2023/07/13 03:10:24;;;;;;;;;;;;;;;13.49;97.19;101461.75;5038930;28;19936;-53
2023/07/13 03:12:50;;;;;;;;;;;;;;;13.47;98.34;101468.59;5061644;28;20330;-56
2023/07/13 03:15:15;;;;;;;;;;;;;;;13.46;97.54;101468.53;5053443;28;20365;-55
2023/07/13 03:17:40;;;;;;;;;;;;;;;13.44;94.93;101470.22;5059989;28;19920;-55
2023/07/13 03:20:07;;;;;;;;;;;;;;;13.38;95.90;101466.63;5060450;28;19960;-56
2023/07/13 03:22:32;;;;;;;;;;;;;;;13.34;97.49;101472.53;5056478;28;20290;-55
2023/07/13 03:24:57;;;;;;;;;;;;;;;13.32;98.66;101463.00;5057412;28;19932;-55
2023/07/13 03:27:22;;;;;;;;;;;;;;;13.33;97.07;101475.09;5056374;28;19920;-54
2023/07/13 03:29:48;;;;;;;;;;;;;;;13.32;97.59;101470.75;5043069;28;20411;-45
2023/07/13 03:32:13;;;;;;;;;;;;;;;13.29;97.25;101471.56;5056791;28;20377;-47
2023/07/13 03:34:38;;;;;;;;;;;;;;;13.28;99.67;101474.97;5037859;28;20404;-46
2023/07/13 03:37:04;;;;;;;;;;;;;;;13.25;96.67;101477.47;5055688;28;20021;-46
2023/07/13 03:39:29;;;;;;;;;;;;;;;13.25;95.60;101477.47;5057361;27;19928;-44
2023/07/13 03:41:54;;;;;;;;;;;;;;;13.24;100.00;101483.47;5059379;28;20060;-48
2023/07/13 03:44:19;;;;;;;;;;;;;;;13.23;100.00;101480.88;5056240;28;19985;-44
2023/07/13 03:46:45;;;;;;;;;;;;;;;13.24;100.00;101477.44;5056491;28;19921;-44
2023/07/13 03:49:10;;;;;;;;;;;;;;;13.23;100.00;101481.72;5058461;28;19921;-45
2023/07/13 03:51:36;;;;;;;;;;;;;;;13.25;100.00;101486.94;5057471;28;20300;-46
2023/07/13 03:54:02;;;;;;;;;;;;;;;13.24;100.00;101491.22;5059712;28;19928;-43
2023/07/13 03:56:28;;;;;;;;;;;;;;;13.22;100.00;101495.44;5044619;28;19917;-45
2023/07/13 03:58:53;;;;;;;;;;;;;;;13.24;100.00;101490.34;5039276;28;20283;-44
2023/07/13 04:01:19;;;;;;;;;;;;;;;13.30;100.00;101493.97;5055984;28;19943;-45
2023/07/13 04:03:46;;;;;;;;;;;;;;;13.29;99.45;101499.97;5038690;28;19925;-45
2023/07/13 04:06:22;;;;;;;;;;;;;;;13.30;99.70;101503.44;5056828;28;19928;-45
2023/07/13 04:08:52;;;;;;;;;;;;;;;13.32;100.00;101501.75;5058028;28;20290;-46
2023/07/13 04:11:22;;;;;;;;;;;;;;;13.35;100.00;101512.19;5061194;28;20372;-45
2023/07/13 04:13:47;;;;;;;;;;;;;;;13.35;100.00;101507.88;5056403;28;19921;-44
2023/07/13 04:16:13;;;;;;;;;;;;;;;13.40;100.00;101508.88;5056136;28;19972;-45
2023/07/13 04:18:38;;;;;;;;;;;;;;;13.45;100.00;101516.75;5055627;27;19946;-44
2023/07/13 04:21:04;;;;;;;;;;;;;;;13.46;100.00;101518.50;5055252;27;19929;-45
2023/07/13 04:23:29;;;;;;;;;;;;;;;13.49;100.00;101516.00;5056696;28;20338;-55
2023/07/13 04:25:54;;;;;;;;;;;;;;;13.53;100.00;101517.84;5054790;28;20019;-55
2023/07/13 04:28:21;;;;;;;;;;;;;;;13.58;100.00;101515.34;5057915;28;20374;-56
2023/07/13 04:30:46;;;;;;;;;;;;;;;13.62;100.00;101519.78;5060349;27;20024;-56
2023/07/13 04:33:11;;;;;;;;;;;;;;;13.65;100.00;101514.66;5054959;28;20189;-55
2023/07/13 04:35:37;;;;;;;;;;;;;;;13.71;100.00;101529.47;5059416;28;19946;-56
2023/07/13 04:38:02;;;;;;;;;;;;;;;13.78;100.00;101523.66;5059556;28;19985;-56
2023/07/13 04:40:28;;;;;;;;;;;;;;;13.86;100.00;101527.28;5053867;28;19921;-56
2023/07/13 04:42:53;;;;;;;;;;;;;;;13.92;100.00;101524.84;5065276;28;19923;-56
2023/07/13 04:45:19;;;;;;;;;;;;;;;13.98;100.00;101524.13;5057461;28;20357;-55
2023/07/13 04:47:45;;;;;;;;;;;;;;;14.07;100.00;101530.38;5061763;28;19947;-56
2023/07/13 04:50:15;;;;;;;;;;;;;;;14.13;100.00;101532.25;5059109;28;19981;-55
2023/07/13 04:52:40;;;;;;;;;;;;;;;14.19;100.00;101534.97;5058333;28;19970;-56
2023/07/13 04:55:05;;;;;;;;;;;;;;;14.29;100.00;101536.09;5062683;28;19924;-54
2023/07/13 04:57:32;;;;;;;;;;;;;;;14.34;100.00;101532.78;5058110;28;19920;-56
2023/07/13 05:00:00;;;;;;;;;;;;;;;14.43;100.00;101532.97;5062677;28;19921;-56
2023/07/13 05:02:26;;;;;;;;;;;;;;;14.48;100.00;101535.69;5054416;28;19963;-56
2023/07/13 05:04:52;;;;;;;;;;;;;;;14.57;100.00;101535.94;5060052;28;19921;-55
2023/07/13 05:07:17;;;;;;;;;;;;;;;14.63;100.00;101541.25;5041132;28;19928;-56
2023/07/13 05:09:42;;;;;;;;;;;;;;;14.73;99.97;101543.16;5059328;28;19965;-55
2023/07/13 05:12:08;;;;;;;;;;;;;;;14.82;100.00;101541.63;5062024;28;20586;-55
2023/07/13 05:14:34;;;;;;;;;;;;;;;14.88;100.00;101537.47;5059920;28;19970;-56
2023/07/13 05:16:59;;;;;;;;;;;;;;;14.95;100.00;101547.09;5057036;28;19925;-54
2023/07/13 05:19:24;;;;;;;;;;;;;;;15.03;100.00;101549.84;5061142;28;19924;-55
2023/07/13 05:21:50;;;;;;;;;;;;;;;15.09;100.00;101549.97;5057951;28;19916;-55
2023/07/13 05:24:15;;;;;;;;;;;;;;;15.14;100.00;101550.94;5060520;28;19925;-56
2023/07/13 05:26:40;;;;;;;;;;;;;;;15.21;100.00;101547.63;5056471;28;19961;-56
2023/07/13 05:29:05;;;;;;;;;;;;;;;15.28;100.00;101549.50;5038487;28;20341;-57
2023/07/13 05:31:31;;;;;;;;;;;;;;;15.33;100.00;101559.94;5059987;28;19928;-56
2023/07/13 05:33:56;;;;;;;;;;;;;;;15.43;100.00;101561.03;5059262;28;20332;-56
2023/07/13 05:36:21;;;;;;;;;;;;;;;15.53;100.00;101558.63;5059461;28;20031;-57
2023/07/13 05:38:47;;;;;;;;;;;;;;;15.59;100.00;101557.84;5059124;28;19931;-54
2023/07/13 05:41:12;;;;;;;;;;;;;;;15.66;100.00;101570.13;5057904;27;19924;-56
2023/07/13 05:43:37;;;;;;;;;;;;;;;15.76;99.90;101564.25;5058014;28;19932;-44
2023/07/13 05:46:02;;;;;;;;;;;;;;;15.86;100.00;101562.72;5059350;28;19985;-46
2023/07/13 05:48:28;;;;;;;;;;;;;;;16.01;99.76;101569.88;5060604;28;19929;-44
2023/07/13 05:50:53;;;;;;;;;;;;;;;16.08;99.30;101570.03;5064346;28;20448;-47
2023/07/13 05:53:18;;;;;;;;;;;;;;;16.15;98.48;101570.13;5059257;28;20559;-46
2023/07/13 05:55:47;;;;;;;;;;;;;;;16.16;99.31;101566.66;5055648;28;19925;-44
2023/07/13 05:58:12;;;;;;;;;;;;;;;16.21;99.16;101581.47;5067029;27;19946;-48
2023/07/13 06:00:38;;;;;;;;;;;;;;;16.25;98.83;101575.47;5060287;28;19925;-45
2023/07/13 06:03:03;;;;;;;;;;;;;;;16.30;98.27;101583.31;5062074;28;19932;-45
2023/07/13 06:05:28;;;;;;;;;;;;;;;16.34;98.21;101591.19;5058693;28;20393;-46
2023/07/13 06:07:54;;;;;;;;;;;;;;;16.44;96.60;101584.44;5041732;28;19976;-46
2023/07/13 06:10:19;;;;;;;;;;;;;;;16.47;97.34;101597.44;5063478;28;19920;-46
2023/07/13 06:12:45;;;;;;;;;;;;;;;16.40;98.66;101595.63;5059628;28;20385;-45
2023/07/13 06:15:10;;;;;;;;;;;;;;;16.44;98.63;101597.41;5061533;28;19932;-47
2023/07/13 06:17:35;;;;;;;;;;;;;;;16.55;98.51;101605.34;5057268;28;19927;-46
2023/07/13 06:20:02;;;;;;;;;;;;;;;16.63;96.63;101594.25;5058292;28;19929;-46
2023/07/13 06:22:27;;;;;;;;;;;;;;;16.76;96.82;101595.31;5059003;28;20028;-47
2023/07/13 06:24:52;;;;;;;;;;;;;;;16.88;96.20;101602.41;5056417;27;19984;-45
2023/07/13 06:27:18;;;;;;;;;;;;;;;17.02;95.64;101603.47;5061769;28;19923;-44
2023/07/13 06:29:44;;;;;;;;;;;;;;;17.00;95.30;101610.38;5055031;28;19916;-48
2023/07/13 06:32:10;;;;;;;;;;;;;;;17.02;95.69;101607.78;5058060;28;20324;-44
2023/07/13 06:34:35;;;;;;;;;;;;;;;17.06;96.17;101613.06;5058634;27;20390;-46
2023/07/13 06:37:00;;;;;;;;;;;;;;;17.20;95.78;101612.38;5058589;28;19960;-46
2023/07/13 06:39:26;;;;;;;;;;;;;;;17.31;95.42;101616.84;5060526;28;19920;-45
2023/07/13 06:41:51;;;;;;;;;;;;;;;17.45;94.29;101616.13;5055283;28;19924;-45
2023/07/13 06:44:16;;;;;;;;;;;;;;;17.54;93.26;101614.53;5057757;28;19989;-46
2023/07/13 06:46:41;;;;;;;;;;;;;;;17.56;93.11;101609.34;5059517;28;19921;-45
2023/07/13 06:49:08;;;;;;;;;;;;;;;17.61;92.98;101620.66;5042573;28;19928;-50
2023/07/13 06:51:33;;;;;;;;;;;;;;;17.61;92.93;101616.34;5056501;28;20451;-45
2023/07/13 06:53:58;;;;;;;;;;;;;;;17.67;93.12;101624.19;5057740;28;19924;-46
2023/07/13 06:56:23;;;;;;;;;;;;;;;17.75;92.11;101619.09;5060722;28;19924;-44
2023/07/13 06:58:49;;;;;;;;;;;;;;;17.79;91.85;101620.03;5056107;28;19924;-46
2023/07/13 07:01:15;;;;;;;;;;;;;;;17.77;92.01;101621.72;5058611;28;20279;-46
2023/07/13 07:03:40;;;;;;;;;;;;;;;17.85;91.73;101630.50;5055465;27;20654;-45
2023/07/13 07:06:19;;;;;;;;;;;;;;;17.86;90.90;101638.31;5054162;28;19921;-47
2023/07/13 07:08:45;;;;;;;;;;;;;;;17.84;91.22;101631.34;5053121;28;19931;-45
2023/07/13 07:11:14;;;;;;;;;;;;;;;17.81;91.46;101633.91;5055491;28;19916;-45
2023/07/13 07:13:40;;;;;;;;;;;;;;;17.81;91.62;101639.13;5057198;28;19965;-46
2023/07/13 07:16:05;;;;;;;;;;;;;;;17.84;91.46;101634.84;5055957;28;20023;-45
2023/07/13 07:18:30;;;;;;;;;;;;;;;17.93;90.72;101621.91;5058295;28;20396;-45
2023/07/13 07:20:56;;;;;;;;;;;;;;;18.05;89.88;101628.09;5055816;28;19920;-46
2023/07/13 07:23:21;;;;;;;;;;;;;;;18.11;90.00;101630.75;5057536;28;19920;-45
2023/07/13 07:25:46;;;;;;;;;;;;;;;18.12;89.54;101629.88;5056102;28;20024;-45
2023/07/13 07:28:14;;;;;;;;;;;;;;;18.22;89.60;101637.78;5051862;28;19935;-46
2023/07/13 07:30:43;;;;;;;;;;;;;;;18.32;88.49;101648.28;5052645;28;19927;-49
2023/07/13 07:33:08;;;;;;;;;;;;;;;18.32;88.48;101638.75;5050402;28;19952;-48
2023/07/13 07:35:34;;;;;;;;;;;;;;;18.31;88.65;101649.13;5058383;28;20010;-44
2023/07/13 07:37:59;;;;;;;;;;;;;;;18.32;88.79;101650.88;5051109;28;19965;-46
2023/07/13 07:40:25;;;;;;;;;;;;;;;18.37;88.50;101641.38;5052913;28;20444;-48
2023/07/13 07:42:50;;;;;;;;;;;;;;;18.45;87.33;101653.63;5051614;28;19921;-48
2023/07/13 07:45:15;;;;;;;;;;;;;;;18.50;87.46;101638.00;5054848;28;19963;-44
2023/07/13 07:47:41;;;;;;;;;;;;;;;18.61;87.50;101641.56;5050182;27;20278;-43
2023/07/13 07:50:06;;;;;;;;;;;;;;;18.84;87.11;101641.78;5068025;28;20289;-45
2023/07/13 07:52:31;;;;;;;;;;;;;;;19.19;86.28;101641.09;5043777;28;19973;-45
2023/07/13 07:54:56;;;;;;;;;;;;;;;19.51;83.45;101644.72;5054390;27;19929;-45
2023/07/13 07:57:22;;;;;;;;;;;;;;;19.73;81.61;101645.69;5053667;28;20338;-48
2023/07/13 07:59:48;;;;;;;;;;;;;;;19.99;82.38;101647.50;5056794;28;19925;-49
2023/07/13 08:02:13;;;;;;;;;;;;;;;20.33;76.55;101651.03;5056344;28;19925;-50
2023/07/13 08:04:39;;;;;;;;;;;;;;;20.57;78.95;101658.03;5056766;28;19934;-49
2023/07/13 08:07:04;;;;;;;;;;;;;;;20.48;75.74;101647.56;5054128;28;19947;-51
2023/07/13 08:09:30;;;;;;;;;;;;;;;20.27;75.87;101649.28;5065622;28;20270;-52
2023/07/13 08:11:55;;;;;;;;;;;;;;;20.44;75.83;101651.00;5060066;27;19924;-50
2023/07/13 08:14:20;;;;;;;;;;;;;;;20.60;74.42;101656.25;5059877;28;20016;-48
2023/07/13 08:16:46;;;;;;;;;;;;;;;20.53;73.97;101658.88;5053902;28;19963;-47
2023/07/13 08:19:11;;;;;;;;;;;;;;;20.55;74.28;101665.84;5049824;28;20358;-51
2023/07/13 08:21:36;;;;;;;;;;;;;;;20.62;71.83;101662.34;5059429;28;20060;-51
2023/07/13 08:24:02;;;;;;;;;;;;;;;20.79;72.80;101658.84;5061089;28;20361;-50
2023/07/13 08:26:27;;;;;;;;;;;;;;;20.90;70.58;101659.72;5056397;28;19928;-49
2023/07/13 08:28:52;;;;;;;;;;;;;;;21.14;74.01;101658.78;5053276;27;19916;-51
2023/07/13 08:31:17;;;;;;;;;;;;;;;21.10;70.06;101651.81;5059427;28;20285;-50
2023/07/13 08:33:43;;;;;;;;;;;;;;;21.11;69.55;101662.28;5059337;28;19924;-51
2023/07/13 08:36:08;;;;;;;;;;;;;;;21.13;67.00;101663.13;5062090;28;19921;-51
2023/07/13 08:38:33;;;;;;;;;;;;;;;21.26;66.74;101656.13;5061006;27;19921;-52
2023/07/13 08:40:59;;;;;;;;;;;;;;;21.42;67.80;101655.22;5064078;27;19940;-55
2023/07/13 08:43:28;;;;;;;;;;;;;;;21.50;66.40;101649.09;5064398;27;20271;-55
2023/07/13 08:46:12;;;;;;;;;;;;;;;21.67;66.74;101652.50;5062028;28;19917;-55
2023/07/13 08:48:46;;;;;;;;;;;;;;;21.89;65.30;101648.84;5060260;27;19975;-55
2023/07/13 08:51:23;;;;;;;;;;;;;;;22.04;64.33;101650.53;5052446;28;19917;-55
2023/07/13 08:53:51;;;;;;;;;;;;;;;22.10;62.29;101653.13;5041118;28;20302;-54
2023/07/13 08:56:21;;;;;;;;;;;;;;;22.17;65.67;101648.72;5064947;27;20411;-55
2023/07/13 08:58:49;;;;;;;;;;;;;;;22.10;62.63;101653.13;5057873;27;19921;-55
2023/07/13 09:01:45;;;;;;;;;;;;;;;21.95;64.61;101648.81;5056832;27;19920;-55
2023/07/13 09:04:15;;;;;;;;;;;;;;;22.10;63.01;101649.66;5048940;27;20338;-55
2023/07/13 09:07:00;;;;;;;;;;;;;;;22.14;61.87;101654.81;5032812;27;19925;-55
2023/07/13 09:09:44;;;;;;;;;;;;;;;22.15;62.17;101658.34;5061244;28;19925;-55
2023/07/13 09:12:28;;;;;;;;;;;;;;;22.22;62.56;101649.56;5055423;28;20358;-55
2023/07/13 09:14:55;;;;;;;;;;;;;;;22.31;65.08;101644.22;5050954;28;20311;-55
2023/07/13 09:17:25;;;;;;;;;;;;;;;22.47;62.94;101645.84;5057123;28;19923;-55
2023/07/13 09:19:55;;;;;;;;;;;;;;;22.47;60.79;101655.47;5057710;28;19920;-53
2023/07/13 09:22:23;;;;;;;;;;;;;;;22.49;62.39;101645.81;5058623;28;20044;-54
2023/07/13 09:24:57;;;;;;;;;;;;;;;22.47;61.61;101648.47;5059424;28;20437;-54
2023/07/13 09:27:28;;;;;;;;;;;;;;;22.61;59.78;101644.84;5056830;28;19917;-56
2023/07/13 09:30:08;;;;;;;;;;;;;;;22.68;59.84;101649.16;5054085;27;19924;-56
2023/07/13 09:32:34;;;;;;;;;;;;;;;22.65;61.69;101641.31;5058584;28;20857;-56
2023/07/13 09:35:02;;;;;;;;;;;;;;;22.69;64.19;101643.91;5055156;28;19932;-55
2023/07/13 09:37:30;;;;;;;;;;;;;;;22.64;61.04;101647.47;5054573;28;19928;-55
2023/07/13 09:39:56;;;;;;;;;;;;;;;22.66;59.44;101648.31;5046943;27;19924;-55
2023/07/13 09:42:22;;;;;;;;;;;;;;;22.48;61.50;101638.84;5055169;28;19928;-54
2023/07/13 09:44:47;;;;;;;;;;;;;;;22.39;62.15;101639.81;5067105;28;19964;-55
2023/07/13 09:47:16;;;;;;;;;;;;;;;22.68;62.70;101642.16;5064730;28;19916;-56
2023/07/13 09:49:43;;;;;;;;;;;;;;;23.07;59.53;101631.31;5067160;28;19917;-57
2023/07/13 09:52:11;;;;;;;;;;;;;;;23.16;58.57;101644.31;5063980;27;19983;-56
2023/07/13 09:54:37;;;;;;;;;;;;;;;23.04;57.69;101644.44;5069092;27;20006;-56
2023/07/13 09:57:03;;;;;;;;;;;;;;;22.88;58.05;101655.13;5067753;28;20278;-57
2023/07/13 09:59:49;;;;;;;;;;;;;;;22.87;59.62;101652.47;5067781;28;19947;-57
2023/07/13 10:02:25;;;;;;;;;;;;;;;22.91;56.01;101655.06;5058723;28;19961;-56
2023/07/13 10:04:58;;;;;;;;;;;;;;;22.97;57.49;101656.75;5062520;28;19916;-55
2023/07/13 10:07:24;;;;;;;;;;;;;;;22.99;56.49;101652.34;5064530;28;19940;-56
2023/07/13 10:09:54;;;;;;;;;;;;;;;22.78;57.64;101656.06;5066744;28;20008;-56
2023/07/13 10:12:19;;;;;;;;;;;;;;;22.39;59.14;101660.78;5060039;28;20554;-54
2023/07/13 10:14:47;;;;;;;;;;;;;;;22.06;62.33;101648.75;5061539;28;19925;-55
2023/07/13 10:17:14;;;;;;;;;;;;;;;21.76;65.26;101660.28;5056637;28;19920;-54
2023/07/13 10:19:41;;;;;;;;;;;;;;;21.50;66.44;101659.56;5068784;28;19955;-54
2023/07/13 10:22:09;;;;;;;;;;;;;;;21.32;65.60;101666.59;5067257;28;20020;-54
2023/07/13 10:24:38;;;;;;;;;;;;;;;21.35;66.89;101663.97;5066530;27;21211;-56
2023/07/13 10:27:07;;;;;;;;;;;;;;;21.33;64.41;101663.09;5066572;27;19913;-54
2023/07/13 10:29:37;;;;;;;;;;;;;;;21.31;66.59;101670.09;5067641;27;19925;-55
2023/07/13 10:32:09;;;;;;;;;;;;;;;21.49;65.69;101661.31;5059588;28;19921;-55
2023/07/13 10:34:34;;;;;;;;;;;;;;;21.74;64.73;101661.19;5061909;28;19928;-55
2023/07/13 10:37:00;;;;;;;;;;;;;;;21.97;62.97;101654.06;5062245;28;19920;-55
2023/07/13 10:39:27;;;;;;;;;;;;;;;22.20;62.30;101659.16;5048092;28;19964;-54
2023/07/13 10:41:59;;;;;;;;;;;;;;;22.46;58.98;101666.84;5063783;28;19941;-55
2023/07/13 10:44:28;;;;;;;;;;;;;;;22.78;58.89;101668.28;5064124;28;19956;-56
2023/07/13 10:46:58;;;;;;;;;;;;;;;23.12;57.48;101663.63;5044563;28;19948;-56
2023/07/13 10:49:26;;;;;;;;;;;;;;;23.45;55.77;101675.44;5065573;28;19975;-56
2023/07/13 10:51:51;;;;;;;;;;;;;;;23.65;56.15;101675.22;5064740;28;19931;-56
2023/07/13 10:54:18;;;;;;;;;;;;;;;23.91;54.10;101688.88;5065563;28;19925;-55
2023/07/13 10:56:44;;;;;;;;;;;;;;;23.72;55.63;101683.03;5066965;28;20351;-55
2023/07/13 10:59:15;;;;;;;;;;;;;;;23.74;55.94;101688.25;5065687;28;20022;-56
2023/07/13 11:02:01;;;;;;;;;;;;;;;23.86;56.07;101679.34;5059145;28;20370;-55
2023/07/13 11:04:27;;;;;;;;;;;;;;;23.94;54.21;101694.06;5051031;28;19955;-56
2023/07/13 11:06:59;;;;;;;;;;;;;;;24.02;56.20;101689.56;5062348;28;19920;-56
2023/07/13 11:09:40;;;;;;;;;;;;;;;24.25;53.97;101689.22;5061719;28;19924;-55
2023/07/13 11:12:26;;;;;;;;;;;;;;;24.34;53.15;101697.03;5061499;28;19927;-55
2023/07/13 11:14:54;;;;;;;;;;;;;;;24.18;53.24;101697.25;5061576;28;19917;-54
2023/07/13 11:17:38;;;;;;;;;;;;;;;24.17;54.00;101690.25;5062718;28;19912;-55
2023/07/13 11:20:12;;;;;;;;;;;;;;;24.17;53.35;101685.00;5067251;27;19999;-55
2023/07/13 11:22:49;;;;;;;;;;;;;;;24.00;54.11;101687.88;5042046;28;19923;-56
2023/07/13 11:25:29;;;;;;;;;;;;;;;23.58;60.27;101695.41;5064526;28;19912;-49
2023/07/13 11:28:03;;;;;;;;;;;;;;;23.01;63.70;101695.19;5058580;27;20010;-51
2023/07/13 11:30:28;;;;;;;;;;;;;;;22.56;69.04;101699.94;5066354;27;20413;-48
2023/07/13 11:33:20;;;;;;;;;;;;;;;22.31;70.51;101701.00;5062784;28;19923;-51
2023/07/13 11:35:45;;;;;;;;;;;;;;;22.17;70.48;101707.22;5056335;28;19920;-53
2023/07/13 11:38:19;;;;;;;;;;;;;;;22.17;71.68;101704.59;5062092;28;19919;-51
2023/07/13 11:40:46;;;;;;;;;;;;;;;22.20;69.47;101706.31;5064139;28;19916;-51
2023/07/13 11:43:13;;;;;;;;;;;;;;;22.15;70.95;101697.63;5064902;28;19923;-53
2023/07/13 11:45:38;;;;;;;;;;;;;;;22.15;68.76;101701.13;5063455;28;19935;-53
2023/07/13 11:48:04;;;;;;;;;;;;;;;22.09;65.19;101698.53;5063161;28;20390;-52
2023/07/13 11:50:29;;;;;;;;;;;;;;;21.97;65.76;101689.88;5061026;27;20007;-52
2023/07/13 11:52:57;;;;;;;;;;;;;;;21.93;66.03;101696.84;5064261;28;19920;-52
2023/07/13 11:55:24;;;;;;;;;;;;;;;21.98;65.86;101684.59;5063616;28;19921;-52
2023/07/13 11:57:54;;;;;;;;;;;;;;;22.12;64.07;101684.53;5060508;28;20206;-53
2023/07/13 12:00:23;;;;;;;;;;;;;;;22.40;65.57;101680.00;5064996;28;19927;-52
2023/07/13 12:02:50;;;;;;;;;;;;;;;22.74;64.38;101672.69;5058649;28;19927;-56
2023/07/13 12:05:17;;;;;;;;;;;;;;;23.12;59.99;101677.59;5054643;28;19912;-55
2023/07/13 12:07:42;;;;;;;;;;;;;;;23.46;60.37;101677.19;5055828;28;19916;-55
2023/07/13 12:10:17;;;;;;;;;;;;;;;23.65;58.72;101681.34;5063065;28;19999;-55
2023/07/13 12:12:55;;;;;;;;;;;;;;;23.61;52.41;101681.38;5061871;28;19916;-54
2023/07/13 12:15:22;;;;;;;;;;;;;;;23.45;52.77;101684.19;5045474;28;19924;-55
2023/07/13 12:17:47;;;;;;;;;;;;;;;23.31;53.15;101691.38;5065584;28;19989;-55
2023/07/13 12:20:33;;;;;;;;;;;;;;;23.06;53.64;101685.53;5063286;28;19916;-54
2023/07/13 12:22:59;;;;;;;;;;;;;;;22.93;53.54;101694.38;5061798;28;19925;-54
2023/07/13 12:25:25;;;;;;;;;;;;;;;22.68;55.18;101683.22;5063610;28;19913;-54
2023/07/13 12:27:50;;;;;;;;;;;;;;;22.78;55.06;101681.41;5063512;27;19928;-55
2023/07/13 12:30:22;;;;;;;;;;;;;;;22.97;52.55;101678.59;5058757;28;19924;-54
2023/07/13 12:32:58;;;;;;;;;;;;;;;23.25;51.54;101679.19;5063717;28;20386;-55
2023/07/13 12:35:23;;;;;;;;;;;;;;;23.57;52.53;101680.56;5065493;28;19961;-54
2023/07/13 12:37:48;;;;;;;;;;;;;;;23.77;47.72;101685.56;5066780;28;19967;-54
2023/07/13 12:40:16;;;;;;;;;;;;;;;23.76;50.03;101682.06;5061965;27;19938;-55
2023/07/13 12:42:42;;;;;;;;;;;;;;;23.66;49.02;101685.72;5062972;28;20115;-55
2023/07/13 12:45:16;;;;;;;;;;;;;;;23.49;48.40;101688.53;5065870;28;20389;-54
2023/07/13 12:47:42;;;;;;;;;;;;;;;23.31;50.12;101695.75;5064147;28;19916;-54
2023/07/13 12:50:16;;;;;;;;;;;;;;;23.39;49.63;101686.03;5063143;28;19916;-54
2023/07/13 12:52:43;;;;;;;;;;;;;;;23.63;50.98;101680.50;5069683;27;19921;-55
2023/07/13 12:55:14;;;;;;;;;;;;;;;24.00;49.90;101680.84;5066361;28;19920;-54
2023/07/13 12:57:51;;;;;;;;;;;;;;;24.34;48.72;101681.25;5067432;28;19913;-54